Time;durP1;ratioP1;P1;durP2;ratioP2;P2;SDS_P1;SDS_P2;PMS_P1;PMS_P2;Temp;Humidity;BMP_temperature;BMP_pressure;BME280_temperature;BME280_humidity;BME280_pressure;Samples;Min_cycle;Max_cycle;Signal;HPM_P1;HPM_P2
2023/01/18 00:00:49;;;;;;;12.55;8.27;;;-1.00;99.90;;;;;;5094581;28;20414;-64
2023/01/18 00:03:16;;;;;;;11.60;7.28;;;-1.00;99.90;;;;;;5094749;28;20410;-61
2023/01/18 00:05:44;;;;;;;13.57;8.30;;;-1.00;99.90;;;;;;5095036;28;20410;-61
2023/01/18 00:08:15;;;;;;;10.97;7.13;;;-1.00;99.90;;;;;;5094682;28;20425;-63
2023/01/18 00:10:42;;;;;;;12.45;7.65;;;-1.00;99.90;;;;;;5094755;28;20782;-63
2023/01/18 00:13:10;;;;;;;9.65;7.35;;;-1.10;99.90;;;;;;5094246;28;20779;-63
2023/01/18 00:15:38;;;;;;;9.85;7.57;;;-1.10;99.90;;;;;;5094271;28;20413;-62
2023/01/18 00:18:06;;;;;;;9.30;7.00;;;-1.10;99.90;;;;;;5094498;28;20490;-62
2023/01/18 00:20:32;;;;;;;10.95;7.82;;;-1.10;99.90;;;;;;5095222;28;20443;-61
2023/01/18 00:23:01;;;;;;;11.32;7.57;;;-1.10;99.90;;;;;;5095005;28;20790;-62
2023/01/18 00:25:29;;;;;;;13.18;7.43;;;-1.10;99.90;;;;;;5094421;28;20906;-63
2023/01/18 00:27:56;;;;;;;10.55;8.07;;;-1.20;99.90;;;;;;5093996;28;20902;-63
2023/01/18 00:30:25;;;;;;;14.50;7.78;;;-1.20;99.90;;;;;;5093644;28;20417;-63
2023/01/18 00:32:55;;;;;;;10.90;7.30;;;-1.20;99.90;;;;;;5094221;28;20414;-63
2023/01/18 00:35:22;;;;;;;11.50;7.90;;;-1.30;99.90;;;;;;5093173;28;20422;-63
2023/01/18 00:37:50;;;;;;;10.45;7.95;;;-1.30;99.90;;;;;;5094520;28;20433;-64
2023/01/18 00:40:19;;;;;;;13.70;7.97;;;-1.30;99.90;;;;;;5095767;28;20571;-63
2023/01/18 00:45:30;;;;;;;12.98;7.80;;;-1.30;99.90;;;;;;5095701;28;20467;-63
2023/01/18 00:47:57;;;;;;;14.45;7.78;;;-1.30;99.90;;;;;;5095291;28;20418;-63
2023/01/18 00:50:24;;;;;;;11.52;7.38;;;-1.40;99.90;;;;;;5098278;28;20406;-63
2023/01/18 00:52:55;;;;;;;10.68;8.10;;;-1.40;99.90;;;;;;5102385;28;20412;-63
2023/01/18 00:55:23;;;;;;;13.57;7.75;;;-1.40;99.90;;;;;;5101874;28;20436;-63
2023/01/18 00:57:50;;;;;;;14.25;8.10;;;-1.40;99.90;;;;;;5103650;28;20794;-63
2023/01/18 01:00:17;;;;;;;12.63;8.07;;;-1.40;99.90;;;;;;5104668;28;20410;-63
2023/01/18 01:02:45;;;;;;;12.82;7.50;;;-1.40;99.90;;;;;;5105363;28;20406;-63
2023/01/18 01:08:01;;;;;;;11.23;7.78;;;-1.40;99.90;;;;;;5103998;28;20392;-62
2023/01/18 01:10:29;;;;;;;11.63;7.43;;;-1.40;99.90;;;;;;5099269;28;20412;-63
2023/01/18 01:26:39;;;;;;;13.18;8.05;;;-1.60;99.90;;;;;;5094846;28;20924;-62
2023/01/18 01:29:06;;;;;;;11.80;8.00;;;-1.60;99.90;;;;;;5095054;28;20416;-63
2023/01/18 01:31:32;;;;;;;10.48;7.50;;;-1.60;99.90;;;;;;5094272;28;20410;-62
2023/01/18 01:33:59;;;;;;;10.57;6.87;;;-1.60;99.90;;;;;;5093738;28;20422;-63
2023/01/18 01:36:27;;;;;;;8.73;7.03;;;-1.60;99.90;;;;;;5094152;28;20405;-63
2023/01/18 01:38:54;;;;;;;9.90;7.00;;;-1.60;99.90;;;;;;5093355;28;20432;-63
2023/01/18 01:41:25;;;;;;;10.70;7.30;;;-1.60;99.90;;;;;;5093056;28;20418;-63
2023/01/18 01:43:55;;;;;;;11.35;7.95;;;-1.70;99.90;;;;;;5092778;28;20778;-63
2023/01/18 01:46:29;;;;;;;10.60;8.18;;;-1.70;99.90;;;;;;5092240;28;20903;-63
2023/01/18 01:49:02;;;;;;;14.65;8.20;;;-1.70;99.90;;;;;;5092562;28;20413;-63
2023/01/18 01:51:29;;;;;;;14.68;9.70;;;-1.70;99.90;;;;;;5093132;28;20405;-62
2023/01/18 01:53:59;;;;;;;13.88;8.98;;;-1.70;99.90;;;;;;5092523;28;20432;-63
2023/01/18 01:56:26;;;;;;;15.32;9.00;;;-1.70;99.90;;;;;;5092875;28;20418;-64
2023/01/18 01:58:58;;;;;;;15.85;9.05;;;-1.70;99.90;;;;;;5092761;28;20405;-62
2023/01/18 02:01:25;;;;;;;11.82;8.38;;;-1.70;99.90;;;;;;5092230;28;20421;-62
2023/01/18 02:03:52;;;;;;;14.18;8.63;;;-1.70;99.90;;;;;;5092493;28;20871;-62
2023/01/18 02:06:30;;;;;;;12.05;8.50;;;-1.70;99.90;;;;;;5092147;28;20409;-62
2023/01/18 02:08:57;;;;;;;12.13;7.72;;;-1.70;99.90;;;;;;5092313;28;20878;-62
2023/01/18 02:11:23;;;;;;;13.85;8.45;;;-1.70;99.90;;;;;;5092295;28;20782;-62
2023/01/18 02:13:50;;;;;;;11.63;8.48;;;-1.70;99.90;;;;;;5092282;28;20426;-62
2023/01/18 02:16:29;;;;;;;13.20;8.43;;;-1.70;99.90;;;;;;5092459;28;20421;-61
2023/01/18 02:19:05;;;;;;;12.23;8.82;;;-1.70;99.90;;;;;;5092558;28;20416;-62
2023/01/18 02:21:36;;;;;;;14.10;9.20;;;-1.70;99.90;;;;;;5092159;28;20410;-62
2023/01/18 02:24:40;;;;;;;17.13;9.70;;;-1.70;99.90;;;;;;5091994;28;20628;-61
2023/01/18 02:27:09;;;;;;;11.70;8.10;;;-1.70;99.90;;;;;;5092287;28;20416;-63
2023/01/18 02:29:59;;;;;;;12.65;8.13;;;-1.80;99.90;;;;;;5092044;28;20467;-63
2023/01/18 02:32:38;;;;;;;10.90;8.50;;;-1.80;99.90;;;;;;5089154;28;20440;-62
2023/01/18 02:35:10;;;;;;;14.80;9.13;;;-1.80;99.90;;;;;;5092313;28;20422;-63
2023/01/18 02:37:45;;;;;;;12.00;8.70;;;-1.80;99.90;;;;;;5092871;28;20413;-62
2023/01/18 02:40:21;;;;;;;11.27;8.20;;;-1.80;99.90;;;;;;5093248;28;20410;-63
2023/01/18 02:48:32;;;;;;;16.52;9.02;;;-1.90;99.90;;;;;;5092466;28;20396;-63
2023/01/18 02:50:59;;;;;;;14.60;8.60;;;-1.90;99.90;;;;;;5091896;28;20752;-63
2023/01/18 02:53:26;;;;;;;12.23;8.30;;;-1.90;99.90;;;;;;5091451;28;20767;-62
2023/01/18 02:55:56;;;;;;;11.88;8.40;;;-1.90;99.90;;;;;;5091485;28;20437;-62
2023/01/18 02:58:26;;;;;;;15.65;9.30;;;-1.90;99.90;;;;;;5092590;28;20897;-63
2023/01/18 03:00:59;;;;;;;11.10;8.60;;;-1.90;99.90;;;;;;5095161;28;20468;-63
2023/01/18 03:03:27;;;;;;;13.02;8.90;;;-1.80;99.90;;;;;;5096341;28;20420;-61
2023/01/18 03:05:58;;;;;;;14.43;8.70;;;-1.90;99.90;;;;;;5094922;28;20413;-62
2023/01/18 03:08:32;;;;;;;11.88;9.00;;;-1.90;99.90;;;;;;5095854;28;20445;-62
2023/01/18 03:11:01;;;;;;;17.80;9.10;;;-1.90;99.90;;;;;;5094779;28;20416;-63
2023/01/18 03:13:46;;;;;;;11.88;8.38;;;-1.90;99.90;;;;;;5095233;28;20414;-63
2023/01/18 03:16:21;;;;;;;13.40;8.70;;;-1.90;99.90;;;;;;5095283;28;20404;-62
2023/01/18 03:19:03;;;;;;;12.77;8.55;;;-1.90;99.90;;;;;;5095159;28;20452;-62
2023/01/18 03:21:37;;;;;;;12.15;8.55;;;-1.90;99.90;;;;;;5095192;28;20417;-63
2023/01/18 03:24:06;;;;;;;13.13;8.90;;;-1.90;99.90;;;;;;5098805;28;20421;-62
2023/01/18 03:26:38;;;;;;;14.32;9.30;;;-1.90;99.90;;;;;;5095537;28;20463;-62
2023/01/18 03:34:50;;;;;;;12.93;9.27;;;-1.90;99.90;;;;;;5095556;28;20412;-63
2023/01/18 03:37:22;;;;;;;13.65;8.93;;;-1.90;99.90;;;;;;5094650;28;20433;-63
2023/01/18 03:39:52;;;;;;;14.00;9.20;;;-1.90;99.90;;;;;;5094736;28;20410;-63
2023/01/18 03:42:24;;;;;;;13.75;9.65;;;-1.90;99.90;;;;;;5094206;28;20406;-63
2023/01/18 03:44:55;;;;;;;14.27;9.05;;;-1.90;99.90;;;;;;5096864;28;20416;-62
2023/01/18 03:47:23;;;;;;;15.90;9.73;;;-1.90;99.90;;;;;;5095177;28;20416;-63
2023/01/18 03:49:50;;;;;;;14.45;9.25;;;-1.90;99.90;;;;;;5094889;28;20421;-63
2023/01/18 03:52:19;;;;;;;12.40;9.40;;;-1.90;99.90;;;;;;5094021;28;20410;-63
2023/01/18 03:54:57;;;;;;;16.30;9.73;;;-1.90;99.90;;;;;;5094354;28;20951;-62
2023/01/18 03:57:29;;;;;;;13.98;9.50;;;-1.90;99.90;;;;;;5094716;28;20417;-62
2023/01/18 03:59:56;;;;;;;17.70;9.63;;;-1.90;99.90;;;;;;5094946;28;20443;-63
2023/01/18 04:02:27;;;;;;;15.35;9.02;;;-1.80;99.90;;;;;;5094084;28;20421;-63
2023/01/18 04:04:56;;;;;;;11.68;8.35;;;-1.80;99.90;;;;;;5094800;28;20424;-62
2023/01/18 04:07:24;;;;;;;11.68;7.90;;;-1.70;99.90;;;;;;5094251;28;20457;-63
2023/01/18 04:10:59;;;;;;;13.55;8.60;;;-1.60;99.90;;;;;;5090729;28;20786;-62
2023/01/18 04:13:26;;;;;;;16.35;8.90;;;-1.50;99.90;;;;;;5070832;28;20417;-63
2023/01/18 04:15:53;;;;;;;12.15;8.75;;;-1.50;99.90;;;;;;5070218;28;20418;-62
2023/01/18 04:18:20;;;;;;;16.00;8.55;;;-1.50;99.90;;;;;;5070466;28;20413;-61
2023/01/18 04:20:47;;;;;;;15.20;8.98;;;-1.50;99.90;;;;;;5070250;28;20411;-63
2023/01/18 04:23:14;;;;;;;15.27;9.40;;;-1.50;99.90;;;;;;5071103;28;20456;-62
2023/01/18 04:25:48;;;;;;;14.40;9.10;;;-1.50;99.90;;;;;;5069634;28;20505;-60
2023/01/18 04:28:23;;;;;;;14.15;9.13;;;-1.50;99.90;;;;;;5070334;28;20503;-63
2023/01/18 04:30:50;;;;;;;14.30;9.30;;;-1.50;99.90;;;;;;5069570;28;20875;-62
2023/01/18 04:33:18;;;;;;;13.82;9.20;;;-1.60;99.90;;;;;;5069427;28;20421;-62
2023/01/18 04:35:44;;;;;;;18.85;9.82;;;-1.60;99.90;;;;;;5069356;28;20413;-63
2023/01/18 04:38:11;;;;;;;16.05;10.15;;;-1.70;99.90;;;;;;5070501;28;20412;-63
2023/01/18 04:40:38;;;;;;;17.10;10.40;;;-1.70;99.90;;;;;;5075354;28;20408;-63
2023/01/18 04:43:05;;;;;;;13.48;9.57;;;-1.70;99.90;;;;;;5073635;28;20412;-63
2023/01/18 04:45:34;;;;;;;12.35;9.25;;;-1.70;99.90;;;;;;5072759;28;20423;-62
2023/01/18 04:48:01;;;;;;;13.35;9.35;;;-1.70;99.90;;;;;;5071341;28;20423;-62
2023/01/18 04:50:27;;;;;;;13.10;9.23;;;-1.70;99.90;;;;;;5073508;28;20431;-62
2023/01/18 04:52:54;;;;;;;11.93;9.00;;;-1.70;99.90;;;;;;5076954;28;20418;-63
2023/01/18 04:55:21;;;;;;;13.82;9.70;;;-1.70;99.90;;;;;;5075696;28;20879;-63
2023/01/18 04:57:54;;;;;;;12.55;9.50;;;-1.70;99.90;;;;;;5074533;28;20428;-63
2023/01/18 05:00:22;;;;;;;13.85;10.40;;;-1.80;99.90;;;;;;5077292;28;20401;-62
2023/01/18 05:02:51;;;;;;;14.07;9.70;;;-1.80;99.90;;;;;;5071394;28;20447;-64
2023/01/18 05:05:18;;;;;;;13.70;9.30;;;-1.80;99.90;;;;;;5067805;28;20429;-61
2023/01/18 05:07:44;;;;;;;14.77;10.00;;;-1.90;99.90;;;;;;5084098;28;20415;-63
2023/01/18 05:10:12;;;;;;;13.63;9.85;;;-1.90;99.90;;;;;;5097995;28;20507;-63
2023/01/18 05:12:38;;;;;;;13.13;9.32;;;-1.90;99.90;;;;;;5106584;28;20426;-63
2023/01/18 05:15:06;;;;;;;15.38;9.73;;;-1.90;99.90;;;;;;5097091;28;20437;-63
2023/01/18 05:17:34;;;;;;;15.80;10.10;;;-1.90;99.90;;;;;;5092103;28;20436;-62
2023/01/18 05:20:03;;;;;;;15.55;9.90;;;-2.00;99.90;;;;;;5087678;28;20435;-62
2023/01/18 05:22:31;;;;;;;17.27;9.57;;;-2.00;99.90;;;;;;5075201;28;20415;-62
2023/01/18 05:24:58;;;;;;;16.63;10.57;;;-2.00;99.90;;;;;;5075611;28;20412;-63
2023/01/18 05:27:25;;;;;;;13.50;9.80;;;-2.00;99.90;;;;;;5075553;28;20446;-62
2023/01/18 05:29:52;;;;;;;16.50;11.00;;;-2.00;99.90;;;;;;5076324;28;20432;-63
2023/01/18 05:32:19;;;;;;;14.70;10.80;;;-2.10;99.90;;;;;;5075223;28;20411;-61
2023/01/18 05:34:45;;;;;;;15.38;10.35;;;-2.10;99.90;;;;;;5074634;28;20482;-65
2023/01/18 05:37:14;;;;;;;13.38;10.13;;;-2.10;99.90;;;;;;5074097;28;20419;-63
2023/01/18 05:39:40;;;;;;;13.50;10.80;;;-2.10;99.90;;;;;;5075312;28;20404;-61
2023/01/18 05:42:07;;;;;;;15.55;10.30;;;-2.10;99.90;;;;;;5075067;28;20415;-62
2023/01/18 05:44:34;;;;;;;16.75;10.80;;;-2.10;99.90;;;;;;5073899;28;20427;-62
2023/01/18 05:47:01;;;;;;;17.77;11.03;;;-2.10;99.90;;;;;;5091675;28;20430;-63
2023/01/18 05:49:29;;;;;;;16.13;10.32;;;-2.10;99.90;;;;;;5092261;28;20428;-61
2023/01/18 05:51:55;;;;;;;13.95;10.15;;;-2.10;99.90;;;;;;5074997;28;20465;-61
2023/01/18 05:54:24;;;;;;;18.77;11.85;;;-2.10;99.90;;;;;;5074741;28;20431;-62
2023/01/18 05:56:50;;;;;;;15.75;10.90;;;-2.00;99.90;;;;;;5074235;28;20786;-63
2023/01/18 05:59:17;;;;;;;15.10;10.70;;;-2.00;99.90;;;;;;5075002;28;20420;-62
2023/01/18 06:01:44;;;;;;;17.48;11.23;;;-2.00;99.90;;;;;;5074762;28;20408;-62
2023/01/18 06:04:11;;;;;;;17.88;10.55;;;-2.00;99.90;;;;;;5076559;28;20431;-63
2023/01/18 06:06:37;;;;;;;16.30;10.65;;;-2.00;99.90;;;;;;5084632;28;20429;-62
2023/01/18 06:09:05;;;;;;;15.90;9.95;;;-2.00;99.90;;;;;;5084519;28;20431;-63
2023/01/18 06:11:33;;;;;;;15.45;9.90;;;-2.00;99.90;;;;;;5085275;28;20410;-60
2023/01/18 06:14:00;;;;;;;16.08;10.15;;;-2.00;99.90;;;;;;5091649;28;20425;-63
2023/01/18 06:16:27;;;;;;;14.82;9.77;;;-1.90;99.90;;;;;;5072787;28;20419;-63
2023/01/18 06:18:54;;;;;;;13.57;9.25;;;-1.90;99.90;;;;;;5067405;28;20435;-62
2023/01/18 06:21:20;;;;;;;15.25;10.05;;;-1.90;99.90;;;;;;5071501;28;20946;-61
2023/01/18 06:23:47;;;;;;;13.38;9.40;;;-1.90;99.90;;;;;;5070990;28;20446;-61
2023/01/18 06:26:14;;;;;;;15.70;9.63;;;-1.90;99.90;;;;;;5072704;28;20438;-63
2023/01/18 06:28:42;;;;;;;15.63;10.50;;;-1.90;99.90;;;;;;5072378;28;20423;-63
2023/01/18 06:31:10;;;;;;;13.23;9.23;;;-1.90;99.90;;;;;;5072049;28;20512;-61
2023/01/18 06:33:37;;;;;;;15.40;9.88;;;-1.90;99.90;;;;;;5074678;28;20624;-62
2023/01/18 06:36:04;;;;;;;15.02;9.80;;;-1.80;99.90;;;;;;5069086;28;20499;-62
2023/01/18 06:38:31;;;;;;;12.43;9.05;;;-1.80;99.90;;;;;;5081242;28;20431;-62
2023/01/18 06:40:58;;;;;;;14.30;8.70;;;-1.80;99.90;;;;;;5078521;28;20427;-63
2023/01/18 06:43:25;;;;;;;19.27;9.00;;;-1.80;99.90;;;;;;5079083;28;20879;-62
2023/01/18 06:45:54;;;;;;;14.05;9.40;;;-1.80;99.90;;;;;;5076638;28;20418;-63
2023/01/18 06:48:22;;;;;;;12.68;8.90;;;-1.80;99.90;;;;;;5075903;28;20797;-62
2023/01/18 06:50:51;;;;;;;12.38;8.40;;;-1.80;99.90;;;;;;5075119;28;20437;-62
2023/01/18 06:53:18;;;;;;;15.85;10.07;;;-1.80;99.90;;;;;;5067584;28;20507;-62
2023/01/18 06:55:53;;;;;;;16.15;9.60;;;-1.70;99.90;;;;;;5073317;28;20484;-62
2023/01/18 06:58:19;;;;;;;17.10;9.95;;;-1.70;99.90;;;;;;5062065;28;20433;-62
2023/01/18 07:00:46;;;;;;;12.27;9.18;;;-1.70;99.90;;;;;;5087202;28;20503;-62
2023/01/18 07:03:14;;;;;;;13.52;9.20;;;-1.70;99.90;;;;;;5079759;28;20790;-62
2023/01/18 07:05:42;;;;;;;13.98;9.35;;;-1.70;99.90;;;;;;5080334;28;20422;-62
2023/01/18 07:08:09;;;;;;;15.18;9.35;;;-1.60;99.90;;;;;;5086393;28;20425;-63
2023/01/18 07:10:36;;;;;;;14.70;9.48;;;-1.60;99.90;;;;;;5089419;28;20451;-62
2023/01/18 07:13:03;;;;;;;13.68;9.02;;;-1.60;99.90;;;;;;5078463;28;20433;-62
2023/01/18 07:15:30;;;;;;;14.25;9.27;;;-1.60;99.90;;;;;;5095362;28;20785;-61
2023/01/18 07:17:56;;;;;;;14.68;8.82;;;-1.60;99.90;;;;;;5086393;28;20926;-62
2023/01/18 07:20:25;;;;;;;15.35;9.48;;;-1.60;99.90;;;;;;5071185;28;20443;-62
2023/01/18 07:22:52;;;;;;;14.35;9.50;;;-1.60;99.90;;;;;;5081328;28;20506;-62
2023/01/18 07:25:19;;;;;;;12.17;9.10;;;-1.60;99.90;;;;;;5073702;28;20431;-63
2023/01/18 07:27:47;;;;;;;14.63;9.13;;;-1.60;99.90;;;;;;5074880;28;20418;-62
2023/01/18 07:30:15;;;;;;;16.10;9.60;;;-1.60;99.90;;;;;;5078272;28;20428;-63
2023/01/18 07:32:47;;;;;;;16.25;10.15;;;-1.60;99.90;;;;;;5087292;28;20448;-63
2023/01/18 07:35:14;;;;;;;13.77;8.77;;;-1.50;99.90;;;;;;5069771;28;20431;-61
2023/01/18 07:37:42;;;;;;;17.27;9.77;;;-1.50;99.90;;;;;;5072963;28;20408;-63
2023/01/18 07:40:10;;;;;;;13.80;9.80;;;-1.60;99.90;;;;;;5071633;28;20872;-62
2023/01/18 07:42:37;;;;;;;14.35;9.35;;;-1.60;99.90;;;;;;5053065;28;20432;-64
2023/01/18 07:45:07;;;;;;;16.10;9.43;;;-1.50;99.90;;;;;;5055353;28;20420;-61
2023/01/18 07:47:34;;;;;;;14.63;10.48;;;-1.50;99.90;;;;;;5073777;28;20608;-63
2023/01/18 07:50:01;;;;;;;14.40;9.68;;;-1.50;99.90;;;;;;5076263;28;20434;-63
2023/01/18 07:52:28;;;;;;;15.50;9.80;;;-1.50;99.90;;;;;;5074268;28;20426;-61
2023/01/18 07:54:56;;;;;;;15.95;9.75;;;-1.40;99.90;;;;;;5074379;28;20422;-62
2023/01/18 07:57:22;;;;;;;15.52;9.88;;;-1.40;99.90;;;;;;5073681;28;20910;-60
2023/01/18 07:59:49;;;;;;;15.90;10.10;;;-1.30;99.90;;;;;;5073524;28;20416;-61
2023/01/18 08:02:16;;;;;;;14.75;9.98;;;-1.30;99.90;;;;;;5074052;28;20412;-62
2023/01/18 08:04:44;;;;;;;15.75;10.15;;;-1.30;99.90;;;;;;5074276;28;20438;-62
2023/01/18 08:07:11;;;;;;;16.85;10.27;;;-1.30;99.90;;;;;;5073317;28;20431;-62
2023/01/18 08:09:37;;;;;;;13.67;9.40;;;-1.30;99.90;;;;;;5072403;28;20426;-62
2023/01/18 08:12:09;;;;;;;15.63;9.77;;;-1.20;99.90;;;;;;5072628;28;20434;-61
2023/01/18 08:14:36;;;;;;;15.13;9.70;;;-1.20;99.90;;;;;;5072739;28;20411;-63
2023/01/18 08:17:05;;;;;;;18.05;10.43;;;-1.20;99.90;;;;;;5073058;28;20415;-63
2023/01/18 08:19:31;;;;;;;16.42;9.75;;;-1.10;99.90;;;;;;5072731;28;20842;-62
2023/01/18 08:21:58;;;;;;;13.27;10.00;;;-1.10;99.90;;;;;;5072353;28;20414;-62
2023/01/18 08:24:25;;;;;;;15.68;9.93;;;-1.10;99.90;;;;;;5072498;28;20411;-61
2023/01/18 08:26:52;;;;;;;15.48;10.68;;;-1.00;99.90;;;;;;5072935;28;20922;-62
2023/01/18 08:29:20;;;;;;;15.85;10.10;;;-1.00;99.90;;;;;;5080043;28;20778;-63
2023/01/18 08:31:51;;;;;;;12.45;9.52;;;-1.00;99.90;;;;;;5071797;28;20439;-59
2023/01/18 08:34:18;;;;;;;14.95;9.43;;;-1.00;99.90;;;;;;5072506;28;20408;-62
2023/01/18 08:36:44;;;;;;;15.38;10.23;;;-1.00;99.90;;;;;;5072393;28;20836;-61
2023/01/18 08:39:12;;;;;;;15.07;9.95;;;-1.00;99.90;;;;;;5072966;28;20438;-63
2023/01/18 08:41:40;;;;;;;13.85;10.55;;;-1.00;99.90;;;;;;5072945;28;20422;-63
2023/01/18 08:44:07;;;;;;;15.10;10.40;;;-0.90;99.90;;;;;;5071707;28;20499;-62
2023/01/18 08:46:36;;;;;;;12.55;8.73;;;-0.90;99.90;;;;;;5072574;28;20429;-63
2023/01/18 08:49:04;;;;;;;19.15;10.40;;;-0.80;99.90;;;;;;5073148;28;20412;-63
2023/01/18 08:51:31;;;;;;;16.33;10.40;;;-0.80;99.90;;;;;;5081279;28;20423;-63
2023/01/18 08:53:58;;;;;;;16.58;10.10;;;-0.70;99.90;;;;;;5082791;28;20404;-61
2023/01/18 08:56:26;;;;;;;14.30;9.93;;;-0.70;99.90;;;;;;5087288;28;20529;-62
2023/01/18 08:58:53;;;;;;;13.32;9.80;;;-0.60;99.90;;;;;;5090101;28;20437;-63
2023/01/18 09:01:21;;;;;;;17.45;9.30;;;-0.50;99.90;;;;;;5088683;28;20506;-62
2023/01/18 09:03:50;;;;;;;14.93;9.40;;;-0.50;99.90;;;;;;5087399;28;20790;-64
2023/01/18 09:06:17;;;;;;;14.93;10.13;;;-0.40;99.90;;;;;;5089106;28;20414;-64
2023/01/18 09:08:47;;;;;;;15.35;9.93;;;-0.30;99.90;;;;;;5080899;28;20415;-62
2023/01/18 09:11:14;;;;;;;16.55;9.98;;;-0.30;99.90;;;;;;5081185;28;20424;-62
2023/01/18 09:13:41;;;;;;;15.43;10.70;;;-0.10;99.90;;;;;;5076622;28;20415;-61
2023/01/18 09:16:10;;;;;;;16.33;10.30;;;-0.10;99.90;;;;;;5076927;28;20821;-63
2023/01/18 09:18:38;;;;;;;15.60;9.80;;;0.00;99.90;;;;;;5079673;28;20476;-63
2023/01/18 09:21:08;;;;;;;18.20;10.63;;;0.10;99.90;;;;;;5079104;28;20493;-62
2023/01/18 09:23:35;;;;;;;16.70;10.48;;;0.20;99.90;;;;;;5080549;28;20416;-62
2023/01/18 09:26:04;;;;;;;14.50;10.45;;;0.30;99.90;;;;;;5080172;28;20412;-62
2023/01/18 09:28:32;;;;;;;14.85;10.40;;;0.30;99.90;;;;;;5078765;28;20410;-62
2023/01/18 09:31:02;;;;;;;15.98;11.32;;;0.40;99.90;;;;;;5078423;28;20449;-63
2023/01/18 09:33:29;;;;;;;16.53;10.63;;;0.40;99.90;;;;;;5076710;28;20423;-62
2023/01/18 09:35:57;;;;;;;16.10;10.57;;;0.50;99.90;;;;;;5077776;28;20416;-63
2023/01/18 09:38:25;;;;;;;17.63;11.63;;;0.60;99.90;;;;;;5077601;28;20431;-62
2023/01/18 09:40:53;;;;;;;16.52;10.65;;;0.60;99.90;;;;;;5077075;28;20415;-61
2023/01/18 09:43:27;;;;;;;25.00;12.55;;;0.80;99.90;;;;;;5077521;28;20418;-63
2023/01/18 09:45:55;;;;;;;19.15;11.20;;;0.80;99.90;;;;;;5076927;28;20415;-63
2023/01/18 09:48:29;;;;;;;17.70;9.68;;;0.90;99.90;;;;;;5076280;28;20937;-64
2023/01/18 09:51:01;;;;;;;16.15;10.18;;;1.00;99.90;;;;;;5077120;28;20427;-63
2023/01/18 09:53:43;;;;;;;17.33;11.18;;;1.00;99.90;;;;;;5080905;28;20415;-63
2023/01/18 09:56:18;;;;;;;13.85;10.00;;;1.10;99.90;;;;;;5080545;28;20475;-63
2023/01/18 09:58:57;;;;;;;15.07;10.13;;;1.20;99.90;;;;;;5079413;28;20410;-62
2023/01/18 10:01:27;;;;;;;14.20;9.75;;;1.20;99.90;;;;;;5082055;28;20423;-61
2023/01/18 10:03:57;;;;;;;13.43;9.85;;;1.30;99.90;;;;;;5083010;28;20419;-62
2023/01/18 10:06:28;;;;;;;14.60;10.15;;;1.30;99.90;;;;;;5082427;28;20416;-62
2023/01/18 10:09:03;;;;;;;13.95;10.32;;;1.40;99.90;;;;;;5082379;28;20879;-63
2023/01/18 10:11:35;;;;;;;16.38;10.25;;;1.40;99.90;;;;;;5082277;28;20423;-64
2023/01/18 10:14:08;;;;;;;14.63;10.13;;;1.50;99.90;;;;;;5083619;28;20480;-65
2023/01/18 10:16:37;;;;;;;14.32;9.57;;;1.60;99.90;;;;;;5082639;28;20418;-65
2023/01/18 10:19:11;;;;;;;13.85;10.18;;;1.70;99.90;;;;;;5083610;28;20443;-64
2023/01/18 10:21:47;;;;;;;16.60;10.05;;;1.70;99.90;;;;;;5084078;28;20436;-64
2023/01/18 10:24:27;;;;;;;13.98;9.77;;;1.80;99.90;;;;;;5086189;28;20416;-64
2023/01/18 10:27:09;;;;;;;12.25;8.95;;;1.90;99.90;;;;;;5085387;28;20399;-63
2023/01/18 10:29:47;;;;;;;15.00;10.00;;;2.00;99.90;;;;;;5083792;28;20469;-62
2023/01/18 10:32:18;;;;;;;12.63;9.98;;;2.00;99.90;;;;;;5085634;28;20434;-63
2023/01/18 10:34:49;;;;;;;10.43;9.17;;;2.10;99.90;;;;;;5083004;28;20443;-63
2023/01/18 10:37:22;;;;;;;14.38;9.20;;;2.20;99.90;;;;;;5080565;28;20858;-65
2023/01/18 10:39:56;;;;;;;14.33;9.80;;;2.30;99.90;;;;;;5081754;28;20442;-63
2023/01/18 10:42:27;;;;;;;16.20;10.00;;;2.40;99.90;;;;;;5081260;28;20416;-63
2023/01/18 10:44:54;;;;;;;13.98;10.05;;;2.40;99.90;;;;;;5079461;28;20408;-63
2023/01/18 10:47:21;;;;;;;13.85;8.85;;;2.50;99.90;;;;;;5080015;28;20407;-62
2023/01/18 10:49:50;;;;;;;15.95;9.65;;;2.60;99.90;;;;;;5078528;28;20420;-64
2023/01/18 10:52:26;;;;;;;12.82;10.18;;;2.60;99.90;;;;;;5078644;28;20794;-63
2023/01/18 10:54:56;;;;;;;11.95;9.60;;;2.60;99.90;;;;;;5078424;28;20424;-62
2023/01/18 10:57:28;;;;;;;14.67;11.00;;;2.70;99.90;;;;;;5078576;28;20938;-64
2023/01/18 10:59:56;;;;;;;13.95;10.45;;;2.80;99.90;;;;;;5076857;28;20411;-63
2023/01/18 11:02:28;;;;;;;15.23;10.50;;;2.80;99.90;;;;;;5075782;28;20423;-64
2023/01/18 11:04:59;;;;;;;15.13;9.95;;;2.90;99.90;;;;;;5075206;28;20469;-64
2023/01/18 11:07:27;;;;;;;13.73;9.85;;;2.90;99.90;;;;;;5074827;28;20507;-62
2023/01/18 11:09:58;;;;;;;13.30;10.33;;;3.00;99.90;;;;;;5075282;28;20522;-63
2023/01/18 11:12:36;;;;;;;12.63;10.00;;;3.00;99.90;;;;;;5075640;28;20423;-63
2023/01/18 11:15:22;;;;;;;12.30;9.73;;;3.10;99.90;;;;;;5076403;28;20412;-63
2023/01/18 11:18:01;;;;;;;11.93;9.30;;;3.20;99.90;;;;;;5069102;28;20427;-61
2023/01/18 11:20:33;;;;;;;11.80;9.30;;;3.30;99.90;;;;;;5074580;28;20447;-64
2023/01/18 11:23:03;;;;;;;12.95;9.00;;;3.40;99.90;;;;;;5075215;28;20423;-64
2023/01/18 11:25:38;;;;;;;13.60;9.50;;;3.50;99.90;;;;;;5075795;28;20486;-64
2023/01/18 11:28:13;;;;;;;11.48;9.07;;;3.40;99.90;;;;;;5074938;28;20901;-64
2023/01/18 11:30:50;;;;;;;11.10;7.70;;;3.40;99.90;;;;;;5074137;28;20566;-64
2023/01/18 11:33:19;;;;;;;10.68;7.30;;;3.50;99.40;;;;;;5075031;28;20407;-63
2023/01/18 11:35:46;;;;;;;13.95;8.40;;;3.50;99.00;;;;;;5075412;28;20415;-64
2023/01/18 11:38:18;;;;;;;9.15;6.97;;;3.50;98.30;;;;;;5076916;28;20404;-64
2023/01/18 11:40:47;;;;;;;8.97;7.13;;;3.50;97.70;;;;;;5075683;28;20415;-63
2023/01/18 11:43:17;;;;;;;11.35;7.30;;;3.60;96.70;;;;;;5076144;28;20443;-64
2023/01/18 11:45:49;;;;;;;7.90;5.85;;;3.60;96.30;;;;;;5074639;28;20418;-63
2023/01/18 11:48:26;;;;;;;8.70;6.60;;;3.70;95.70;;;;;;5074711;28;20416;-64
2023/01/18 11:50:59;;;;;;;10.23;6.60;;;3.60;95.10;;;;;;5080671;28;20420;-60
2023/01/18 11:53:40;;;;;;;10.77;7.30;;;3.60;94.90;;;;;;5084490;28;20406;-64
2023/01/18 11:56:12;;;;;;;11.85;7.65;;;3.70;95.40;;;;;;5083397;28;20404;-64
2023/01/18 11:58:40;;;;;;;8.13;6.10;;;3.80;95.30;;;;;;5083984;28;20492;-64
2023/01/18 12:01:27;;;;;;;6.75;5.78;;;3.80;94.90;;;;;;5082604;28;20418;-63
2023/01/18 12:04:01;;;;;;;10.20;5.85;;;3.80;94.40;;;;;;5075474;28;20906;-64
2023/01/18 12:06:46;;;;;;;7.07;5.10;;;3.90;94.00;;;;;;5074281;28;20426;-63
2023/01/18 12:09:29;;;;;;;6.78;4.30;;;3.90;93.20;;;;;;5073788;28;20415;-64
2023/01/18 12:12:16;;;;;;;8.00;4.82;;;3.80;91.40;;;;;;5074658;28;20424;-65
2023/01/18 12:14:57;;;;;;;5.78;4.72;;;3.70;90.70;;;;;;5076360;28;20415;-65
2023/01/18 12:17:36;;;;;;;6.55;4.80;;;3.60;90.80;;;;;;5073724;28;20411;-64
2023/01/18 12:20:24;;;;;;;6.90;4.88;;;3.50;90.70;;;;;;5074021;28;20909;-64
2023/01/18 12:23:21;;;;;;;10.40;5.20;;;3.50;90.40;;;;;;5074025;28;20407;-62
2023/01/18 12:26:12;;;;;;;7.25;4.70;;;3.50;90.70;;;;;;5074072;28;20453;-63
2023/01/18 12:29:02;;;;;;;8.68;4.97;;;3.60;90.90;;;;;;5074189;28;20905;-65
2023/01/18 12:31:46;;;;;;;8.10;4.90;;;3.70;90.60;;;;;;5075917;28;20483;-65
2023/01/18 12:34:17;;;;;;;6.50;5.10;;;3.80;90.30;;;;;;5078118;28;20426;-64
2023/01/18 12:37:02;;;;;;;7.85;4.90;;;3.80;90.20;;;;;;5078888;28;20407;-65
2023/01/18 12:39:47;;;;;;;7.70;4.93;;;3.80;89.80;;;;;;5079151;28;20415;-64
2023/01/18 12:42:20;;;;;;;6.32;4.57;;;3.90;89.70;;;;;;5079088;28;20414;-63
2023/01/18 12:44:59;;;;;;;7.10;5.20;;;3.80;88.60;;;;;;5078912;28;20423;-64
2023/01/18 12:47:34;;;;;;;7.28;5.30;;;3.80;88.10;;;;;;5078905;28;20403;-64
2023/01/18 12:50:07;;;;;;;10.10;5.82;;;3.80;88.70;;;;;;5078754;28;20901;-64
2023/01/18 12:52:43;;;;;;;8.75;5.28;;;3.80;88.80;;;;;;5078086;28;20424;-63
2023/01/18 12:55:19;;;;;;;8.30;5.50;;;3.80;88.60;;;;;;5077726;28;20416;-64
2023/01/18 12:57:48;;;;;;;11.60;6.70;;;3.80;89.50;;;;;;5078792;28;20830;-65
2023/01/18 13:00:21;;;;;;;9.13;5.70;;;3.80;89.70;;;;;;5078234;28;20491;-64
2023/01/18 13:02:52;;;;;;;8.00;5.30;;;3.90;89.70;;;;;;5077203;28;20419;-64
2023/01/18 13:05:31;;;;;;;11.07;6.10;;;3.90;90.00;;;;;;5076975;28;20415;-63
2023/01/18 13:08:05;;;;;;;8.32;5.70;;;3.90;90.00;;;;;;5077972;28;20423;-63
2023/01/18 13:10:33;;;;;;;9.10;5.57;;;4.00;89.90;;;;;;5076541;28;20427;-65
2023/01/18 13:13:04;;;;;;;10.30;6.63;;;4.00;89.90;;;;;;5076365;28;20430;-63
2023/01/18 13:15:37;;;;;;;7.45;6.28;;;4.00;89.50;;;;;;5077047;28;20437;-65
2023/01/18 13:18:10;;;;;;;8.90;5.80;;;4.00;89.10;;;;;;5077685;28;20419;-63
2023/01/18 13:20:49;;;;;;;9.10;5.85;;;4.00;89.40;;;;;;5077295;28;20404;-64
2023/01/18 13:23:29;;;;;;;8.63;6.10;;;4.00;89.50;;;;;;5077416;28;20412;-64
2023/01/18 13:26:07;;;;;;;9.38;6.40;;;3.90;89.60;;;;;;5077401;28;20415;-64